Time;durP1;ratioP1;P1;durP2;ratioP2;P2;SDS_P1;SDS_P2;PMS_P1;PMS_P2;Temp;Humidity;BMP_temperature;BMP_pressure;BME280_temperature;BME280_humidity;BME280_pressure;Samples;Min_cycle;Max_cycle;Signal;HPM_P1;HPM_P2
2023/09/23 00:00:12;;;;;;;9.60;2.80;;;;;;;20.40;68.16;101039.21;107671;1254;112012;-64
2023/09/23 00:03:00;;;;;;;10.80;2.50;;;;;;;20.39;67.94;101034.07;107572;1254;110334;-63
2023/09/23 00:05:32;;;;;;;6.10;2.40;;;;;;;20.38;67.98;101039.03;107578;1253;109421;-63
2023/09/23 00:08:00;;;;;;;9.70;2.20;;;;;;;20.37;68.12;101041.16;107600;1254;97829;-62
2023/09/23 00:10:29;;;;;;;7.50;2.40;;;;;;;20.36;68.09;101041.19;107602;1253;98010;-64
2023/09/23 00:12:57;;;;;;;6.70;2.50;;;;;;;20.32;68.32;101037.26;107633;1254;112091;-65
2023/09/23 00:15:25;;;;;;;7.00;2.30;;;;;;;20.29;68.32;101032.38;107654;1253;109189;-64
2023/09/23 00:17:55;;;;;;;7.20;2.30;;;;;;;20.27;68.17;101031.17;107586;1253;107770;-64
2023/09/23 00:20:23;;;;;;;4.40;2.50;;;;;;;20.25;68.56;101033.23;107528;1254;97781;-65
2023/09/23 00:22:52;;;;;;;7.00;2.50;;;;;;;20.22;68.55;101032.94;107653;1253;97742;-64
2023/09/23 00:25:23;;;;;;;8.00;2.20;;;;;;;20.19;68.65;101037.77;107566;1254;111947;-64
2023/09/23 00:27:54;;;;;;;5.90;2.20;;;;;;;20.17;68.58;101038.02;107634;1253;108775;-65
2023/09/23 00:30:23;;;;;;;5.10;2.20;;;;;;;20.15;68.75;101038.45;107598;1251;108397;-64
2023/09/23 00:32:52;;;;;;;5.30;2.40;;;;;;;20.13;68.75;101039.11;107582;1251;97844;-64
2023/09/23 00:35:20;;;;;;;7.40;2.30;;;;;;;20.11;68.83;101040.09;107626;1254;97717;-64
2023/09/23 00:37:49;;;;;;;5.70;2.20;;;;;;;20.09;69.15;101043.48;107626;1251;111237;-64
2023/09/23 00:40:24;;;;;;;3.90;2.10;;;;;;;20.03;69.89;101037.44;107590;1256;109734;-64
2023/09/23 00:42:56;;;;;;;9.60;2.80;;;;;;;19.96;69.45;101039.36;107644;1251;107913;-65
2023/09/23 00:45:25;;;;;;;6.50;2.30;;;;;;;19.93;69.28;101037.92;107640;1252;97867;-65
2023/09/23 00:47:55;;;;;;;7.90;2.30;;;;;;;19.88;70.00;101039.40;107494;1251;97879;-64
2023/09/23 00:50:24;;;;;;;4.00;2.00;;;;;;;19.78;70.16;101038.19;107629;1251;111525;-65
2023/09/23 00:52:53;;;;;;;7.70;2.50;;;;;;;19.70;69.93;101035.61;107534;1254;109269;-64
2023/09/23 00:55:26;;;;;;;7.00;2.80;;;;;;;19.66;70.21;101032.71;107569;1253;108710;-63
2023/09/23 00:57:59;;;;;;;4.40;2.40;;;;;;;19.62;70.62;101027.30;107653;1251;97897;-64
2023/09/23 01:00:30;;;;;;;3.80;2.50;;;;;;;19.60;70.51;101026.70;107626;1254;97823;-63
2023/09/23 01:02:59;;;;;;;7.10;2.60;;;;;;;19.57;70.54;101020.92;107627;1254;112092;-63
2023/09/23 01:05:30;;;;;;;6.50;2.90;;;;;;;19.54;71.14;101024.70;107505;1254;109100;-63
2023/09/23 01:08:05;;;;;;;9.20;3.30;;;;;;;19.50;70.98;101030.82;107521;1252;108183;-64
2023/09/23 01:10:33;;;;;;;7.00;2.80;;;;;;;19.47;71.49;101032.97;107571;1251;98166;-64
2023/09/23 01:13:02;;;;;;;14.40;3.30;;;;;;;19.45;71.69;101036.23;107629;1251;97733;-64
2023/09/23 01:15:31;;;;;;;7.20;2.90;;;;;;;19.41;72.06;101038.44;107622;1253;111879;-63
2023/09/23 01:17:59;;;;;;;4.40;2.70;;;;;;;19.35;72.56;101038.08;107600;1254;109471;-63
2023/09/23 01:20:30;;;;;;;7.90;2.70;;;;;;;19.30;72.84;101034.29;107583;1255;108359;-63
2023/09/23 01:22:58;;;;;;;5.00;2.40;;;;;;;19.28;72.85;101036.76;107554;1253;98009;-64
2023/09/23 01:25:27;;;;;;;10.20;2.90;;;;;;;19.25;72.71;101038.61;107626;1253;97730;-63
2023/09/23 01:27:55;;;;;;;5.30;2.60;;;;;;;19.23;72.59;101040.42;107549;1254;111422;-64
2023/09/23 01:30:24;;;;;;;6.00;2.30;;;;;;;19.23;72.50;101034.02;107614;1254;110022;-65
2023/09/23 01:32:53;;;;;;;6.40;3.20;;;;;;;19.26;72.48;101035.98;107615;1251;108680;-66
2023/09/23 01:35:22;;;;;;;11.00;2.60;;;;;;;19.28;72.59;101029.55;107601;1256;97695;-62
2023/09/23 01:37:51;;;;;;;6.30;2.50;;;;;;;19.28;72.71;101030.35;107613;1254;98230;-65
2023/09/23 01:40:19;;;;;;;5.60;2.20;;;;;;;19.28;72.51;101030.42;107632;1254;111056;-64
2023/09/23 01:42:54;;;;;;;6.50;3.90;;;;;;;19.29;72.65;101031.41;107595;1251;109691;-63
2023/09/23 01:45:22;;;;;;;7.40;2.40;;;;;;;19.30;72.44;101031.13;107597;1251;107993;-63
2023/09/23 01:47:50;;;;;;;8.60;3.20;;;;;;;19.29;72.53;101030.23;107569;1252;97845;-63
2023/09/23 01:50:20;;;;;;;7.70;3.40;;;;;;;19.28;72.40;101027.35;107639;1253;98443;-64
2023/09/23 01:52:49;;;;;;;4.10;2.40;;;;;;;19.26;72.51;101031.71;107596;1251;110601;-63
2023/09/23 01:55:18;;;;;;;11.30;2.60;;;;;;;19.25;72.39;101030.77;107530;1254;108925;-65
2023/09/23 01:57:49;;;;;;;5.00;2.60;;;;;;;19.25;72.28;101033.66;107592;1254;107573;-64
2023/09/23 02:00:18;;;;;;;10.70;2.30;;;;;;;19.25;72.31;101041.33;107595;1254;97944;-65
2023/09/23 02:02:48;;;;;;;19.40;6.80;;;;;;;19.23;72.33;101043.02;107623;1252;97739;-62
2023/09/23 02:05:18;;;;;;;10.90;2.50;;;;;;;19.21;72.41;101042.46;107639;1251;111205;-64
2023/09/23 02:07:50;;;;;;;7.00;3.10;;;;;;;19.20;72.46;101047.18;107551;1253;110037;-64
2023/09/23 02:10:18;;;;;;;12.80;2.80;;;;;;;19.20;72.38;101047.38;107593;1254;108808;-63
2023/09/23 02:12:47;;;;;;;7.50;2.90;;;;;;;19.21;72.59;101049.84;107544;1252;97956;-64
2023/09/23 02:15:16;;;;;;;8.10;3.00;;;;;;;19.20;72.44;101052.63;107572;1253;98479;-64
2023/09/23 02:17:49;;;;;;;6.10;3.00;;;;;;;19.18;72.36;101051.56;107591;1251;110733;-65
2023/09/23 02:20:21;;;;;;;11.00;2.80;;;;;;;19.18;72.39;101052.70;107604;1253;108830;-63
2023/09/23 02:22:53;;;;;;;6.40;3.00;;;;;;;19.17;72.47;101051.20;107560;1251;108620;-63
2023/09/23 02:25:25;;;;;;;5.50;2.60;;;;;;;19.15;72.52;101053.65;107563;1251;97679;-63
2023/09/23 02:27:55;;;;;;;5.30;2.40;;;;;;;19.12;72.39;101055.96;107631;1251;97910;-64
2023/09/23 02:30:25;;;;;;;8.30;2.50;;;;;;;19.10;72.40;101057.30;107600;1254;111233;-64
2023/09/23 02:32:54;;;;;;;12.70;3.00;;;;;;;19.06;72.40;101051.79;107604;1251;109103;-65
2023/09/23 02:35:25;;;;;;;6.30;2.90;;;;;;;18.99;72.33;101052.26;107530;1251;107768;-63
2023/09/23 02:37:54;;;;;;;5.60;2.90;;;;;;;18.94;72.41;101057.70;107585;1251;97824;-64
2023/09/23 02:40:23;;;;;;;10.20;3.00;;;;;;;18.91;72.58;101054.19;107600;1251;97729;-64
2023/09/23 02:42:53;;;;;;;8.80;3.30;;;;;;;18.90;72.77;101055.79;107613;1251;111647;-63
2023/09/23 02:45:22;;;;;;;7.00;3.90;;;;;;;18.88;72.75;101056.77;107659;1252;110310;-64
2023/09/23 02:47:52;;;;;;;3.60;2.80;;;;;;;18.87;72.93;101054.55;107567;1253;107915;-65
2023/09/23 02:50:21;;;;;;;8.20;3.00;;;;;;;18.85;72.93;101055.20;107532;1251;97815;-63
2023/09/23 02:52:49;;;;;;;12.40;3.50;;;;;;;18.84;72.92;101056.05;107581;1253;97749;-63
2023/09/23 02:55:22;;;;;;;6.40;3.50;;;;;;;18.82;72.95;101057.95;107659;1251;112072;-63
2023/09/23 02:57:54;;;;;;;13.70;3.70;;;;;;;18.79;72.96;101055.69;107635;1255;109364;-65
2023/09/23 03:00:30;;;;;;;11.10;3.60;;;;;;;18.76;73.01;101056.73;107535;1254;107454;-64
2023/09/23 03:03:02;;;;;;;9.30;3.50;;;;;;;18.76;73.32;101066.02;107565;1254;97845;-63
2023/09/23 03:05:31;;;;;;;12.10;3.10;;;;;;;18.77;73.36;101066.30;107561;1254;98440;-64
2023/09/23 03:08:01;;;;;;;13.70;3.80;;;;;;;18.77;73.53;101064.96;107572;1253;111324;-63
2023/09/23 03:10:40;;;;;;;8.60;3.20;;;;;;;18.77;73.56;101065.31;107543;1254;109825;-64
2023/09/23 03:13:11;;;;;;;13.70;3.50;;;;;;;18.77;73.64;101062.96;107621;1253;108146;-65
2023/09/23 03:16:27;;;;;;;14.70;4.10;;;;;;;18.76;73.64;101065.25;107607;1253;97837;-63
2023/09/23 03:18:44;;;;;;;9.30;3.60;;;;;;;18.76;73.63;101062.05;107537;1253;97895;-64
2023/09/23 03:21:15;;;;;;;13.50;3.60;;;;;;;18.75;73.72;101068.12;107623;1256;111411;-64
2023/09/23 03:23:44;;;;;;;8.00;3.40;;;;;;;18.74;73.94;101067.84;107494;1254;109371;-64
2023/09/23 03:26:15;;;;;;;16.40;3.70;;;;;;;18.73;73.83;101066.36;107549;1254;108138;-63
2023/09/23 03:28:43;;;;;;;13.60;4.30;;;;;;;18.70;73.79;101067.40;107544;1253;97914;-64
2023/09/23 03:31:14;;;;;;;12.20;3.20;;;;;;;18.68;73.72;101066.81;107650;1253;97847;-63
2023/09/23 03:33:46;;;;;;;;;;;;;;;18.66;73.81;101064.28;107573;1255;111882;-64
2023/09/23 03:36:16;;;;;;;12.40;4.10;;;;;;;18.62;73.71;101063.87;107609;1254;108820;-63
2023/09/23 03:38:46;;;;;;;12.90;3.20;;;;;;;18.59;73.82;101061.64;107567;1253;108598;-65
2023/09/23 03:41:15;;;;;;;10.00;3.30;;;;;;;18.59;73.87;101060.61;107585;1254;97832;-63
2023/09/23 03:43:43;;;;;;;6.80;3.30;;;;;;;18.58;73.87;101063.59;107598;1253;97861;-64
2023/09/23 03:46:16;;;;;;;8.60;3.60;;;;;;;18.58;74.14;101064.20;107593;1253;111266;-64
2023/09/23 03:48:46;;;;;;;8.80;3.30;;;;;;;18.57;74.24;101064.65;107571;1253;108902;-64
2023/09/23 03:51:17;;;;;;;5.10;3.50;;;;;;;18.57;74.48;101067.67;107509;1253;108314;-63
2023/09/23 03:53:49;;;;;;;10.80;3.40;;;;;;;18.58;74.45;101069.98;107517;1253;97947;-63
2023/09/23 03:56:27;;;;;;;11.20;3.40;;;;;;;18.58;74.60;101074.36;107537;1251;97940;-63
2023/09/23 03:58:56;;;;;;;12.30;4.40;;;;;;;18.56;74.58;101076.00;107571;1254;111459;-64
2023/09/23 04:01:24;;;;;;;7.70;3.30;;;;;;;18.56;74.49;101080.77;107553;1255;109958;-64
2023/09/23 04:03:53;;;;;;;6.30;3.20;;;;;;;18.54;74.81;101077.20;107546;1251;108489;-63
2023/09/23 04:06:22;;;;;;;8.90;4.10;;;;;;;18.49;74.76;101081.39;107580;1251;97877;-64
2023/09/23 04:08:50;;;;;;;5.80;3.50;;;;;;;18.46;74.64;101085.16;107527;1251;97957;-64
2023/09/23 04:11:18;;;;;;;10.30;3.90;;;;;;;18.43;74.65;101086.81;107545;1251;111278;-64
2023/09/23 04:13:47;;;;;;;12.70;3.60;;;;;;;18.43;74.97;101085.17;107584;1251;109480;-64
2023/09/23 04:16:15;;;;;;;17.40;4.70;;;;;;;18.44;75.32;101090.31;107602;1251;107918;-63
2023/09/23 04:18:44;;;;;;;13.10;4.60;;;;;;;18.45;75.30;101096.16;107537;1251;97864;-63
2023/09/23 04:21:13;;;;;;;22.00;4.10;;;;;;;18.47;75.35;101094.51;107591;1251;97703;-64
2023/09/23 04:23:41;;;;;;;16.50;3.50;;;;;;;18.50;75.46;101097.29;107569;1251;112635;-63
2023/09/23 04:26:12;;;;;;;14.70;4.10;;;;;;;18.52;75.49;101096.83;107565;1251;109676;-64
2023/09/23 04:28:41;;;;;;;14.40;4.50;;;;;;;18.54;75.68;101099.68;107544;1251;108485;-64
2023/09/23 04:31:11;;;;;;;18.60;5.20;;;;;;;18.57;75.80;101101.48;107600;1251;97845;-63
2023/09/23 04:33:39;;;;;;;14.70;4.80;;;;;;;18.59;75.76;101106.73;107590;1255;97951;-63
2023/09/23 04:36:10;;;;;;;26.80;4.50;;;;;;;18.63;75.75;101109.35;107512;1254;111410;-64
2023/09/23 04:38:39;;;;;;;13.70;4.10;;;;;;;18.67;75.79;101112.30;107643;1256;108686;-64
2023/09/23 04:41:07;;;;;;;12.50;4.30;;;;;;;18.66;75.96;101114.20;107577;1251;107356;-65
2023/09/23 04:43:35;;;;;;;13.70;4.10;;;;;;;18.66;76.20;101108.48;107577;1254;97879;-65
2023/09/23 04:46:04;;;;;;;16.80;5.30;;;;;;;18.69;76.48;101109.21;107598;1253;97190;-67
2023/09/23 04:48:32;;;;;;;14.30;4.40;;;;;;;18.72;76.68;101107.69;107599;1251;110925;-64
2023/09/23 04:51:03;;;;;;;14.00;4.70;;;;;;;18.75;76.38;101111.92;107554;1251;110005;-64
2023/09/23 04:53:31;;;;;;;12.90;6.10;;;;;;;18.79;76.53;101116.00;107555;1251;108229;-65
2023/09/23 04:56:08;;;;;;;9.70;4.20;;;;;;;18.82;76.64;101121.95;107555;1254;97894;-65
2023/09/23 04:58:37;;;;;;;21.50;4.70;;;;;;;18.86;76.73;101119.21;107566;1251;98398;-64
2023/09/23 05:01:05;;;;;;;17.60;4.30;;;;;;;18.89;76.96;101123.02;107560;1251;111501;-66
2023/09/23 05:03:36;;;;;;;17.20;4.60;;;;;;;18.92;77.07;101121.70;107607;1253;109985;-65
2023/09/23 05:06:06;;;;;;;17.60;4.50;;;;;;;18.99;76.93;101125.30;107502;1254;107696;-65
2023/09/23 05:08:35;;;;;;;14.80;4.20;;;;;;;19.09;77.06;101130.49;107530;1252;98547;-64
2023/09/23 05:11:06;;;;;;;10.50;4.10;;;;;;;19.18;77.18;101132.45;107560;1253;97841;-62
2023/09/23 05:13:36;;;;;;;8.00;4.20;;;;;;;19.28;77.08;101137.70;107577;1253;111414;-62
2023/09/23 05:16:05;;;;;;;11.80;4.20;;;;;;;19.36;77.08;101139.84;107622;1254;109546;-66
2023/09/23 05:18:35;;;;;;;11.20;5.10;;;;;;;19.44;76.94;101147.04;107546;1254;107658;-64
2023/09/23 05:21:05;;;;;;;11.60;5.80;;;;;;;19.54;77.03;101148.75;107575;1253;97838;-64
2023/09/23 05:23:33;;;;;;;14.00;4.30;;;;;;;19.65;76.88;101152.83;107637;1254;97925;-65
2023/09/23 05:26:04;;;;;;;11.10;4.30;;;;;;;19.75;77.20;101156.08;107633;1251;111902;-65
2023/09/23 05:28:33;;;;;;;12.60;4.80;;;;;;;19.82;76.95;101162.94;107610;1255;108622;-63
2023/09/23 05:31:03;;;;;;;12.50;5.10;;;;;;;19.92;76.63;101157.68;107580;1253;108507;-65
2023/09/23 05:33:32;;;;;;;13.30;4.30;;;;;;;20.01;76.59;101161.26;107584;1253;97828;-64
2023/09/23 05:36:02;;;;;;;13.90;4.20;;;;;;;20.12;76.47;101166.03;107553;1256;97838;-63
2023/09/23 05:38:31;;;;;;;9.30;4.70;;;;;;;20.24;76.25;101169.96;107584;1251;111416;-65
2023/09/23 05:41:00;;;;;;;9.30;4.20;;;;;;;20.36;76.09;101173.05;107612;1253;108975;-65
2023/09/23 05:43:28;;;;;;;8.80;4.20;;;;;;;20.46;75.79;101174.30;107502;1253;108492;-63
2023/09/23 05:45:56;;;;;;;11.60;4.30;;;;;;;20.55;75.69;101175.92;107549;1251;98590;-63
2023/09/23 05:48:25;;;;;;;13.80;4.80;;;;;;;20.60;75.16;101175.27;107579;1251;98380;-64
2023/09/23 05:51:03;;;;;;;13.70;4.70;;;;;;;20.64;74.90;101179.31;107574;1254;112677;-66
2023/09/23 05:53:33;;;;;;;13.60;4.80;;;;;;;20.65;74.70;101182.55;107636;1252;108432;-65
2023/09/23 05:56:01;;;;;;;13.70;4.30;;;;;;;20.68;74.65;101189.07;107556;1256;109191;-65
2023/09/23 05:58:29;;;;;;;21.90;4.70;;;;;;;20.74;74.68;101190.84;107562;1251;97989;-64
2023/09/23 06:00:58;;;;;;;27.30;5.20;;;;;;;20.79;74.26;101195.74;107549;1254;98372;-62
2023/09/23 06:03:26;;;;;;;16.80;4.70;;;;;;;20.86;74.27;101202.04;107523;1253;111703;-63
2023/09/23 06:05:55;;;;;;;16.00;4.30;;;;;;;20.92;74.10;101201.97;107596;1253;109709;-63
2023/09/23 06:08:24;;;;;;;24.00;4.50;;;;;;;20.97;74.07;101195.88;107621;1254;108214;-63
2023/09/23 06:10:52;;;;;;;11.40;4.30;;;;;;;21.03;73.97;101196.23;107587;1253;98014;-63
2023/09/23 06:13:20;;;;;;;15.90;3.80;;;;;;;21.08;73.41;101194.30;107560;1254;97835;-64
2023/09/23 06:15:49;;;;;;;13.70;4.50;;;;;;;21.13;73.49;101190.02;107590;1254;111594;-63
2023/09/23 06:18:17;;;;;;;12.20;4.40;;;;;;;21.21;73.45;101192.65;107572;1254;109138;-65
2023/09/23 06:20:45;;;;;;;11.70;4.60;;;;;;;21.30;73.37;101195.72;107560;1252;107823;-64
2023/09/23 06:23:13;;;;;;;13.50;4.60;;;;;;;21.38;73.14;101204.75;107553;1254;97772;-64
2023/09/23 06:25:41;;;;;;;8.30;4.60;;;;;;;21.40;72.93;101200.77;107559;1253;97736;-64
2023/09/23 06:28:10;;;;;;;18.10;4.60;;;;;;;21.40;72.44;101198.38;107581;1254;111748;-63
2023/09/23 06:30:41;;;;;;;9.10;4.20;;;;;;;21.40;72.47;101201.02;107617;1254;109177;-64
2023/09/23 06:33:09;;;;;;;14.20;5.70;;;;;;;21.39;72.40;101205.61;107503;1253;109770;-66
2023/09/23 06:35:38;;;;;;;9.10;4.60;;;;;;;21.39;72.29;101210.16;107587;1254;97710;-65
2023/09/23 06:38:06;;;;;;;11.10;4.00;;;;;;;21.42;72.42;101212.16;107579;1251;97776;-63
2023/09/23 06:40:35;;;;;;;11.60;5.30;;;;;;;21.46;72.48;101209.23;107604;1251;111931;-64
2023/09/23 06:43:04;;;;;;;9.70;5.00;;;;;;;21.49;72.38;101208.80;107532;1252;109354;-66
2023/09/23 06:45:32;;;;;;;10.90;4.50;;;;;;;21.54;72.50;101206.23;107573;1251;108462;-65
2023/09/23 06:48:00;;;;;;;11.30;4.70;;;;;;;21.59;72.34;101210.09;107531;1254;97844;-64
2023/09/23 06:50:29;;;;;;;12.00;4.10;;;;;;;21.63;72.13;101206.67;107588;1251;97976;-64
2023/09/23 06:52:57;;;;;;;11.90;4.60;;;;;;;21.71;71.93;101209.23;107617;1254;110814;-64
2023/09/23 06:55:26;;;;;;;12.80;4.50;;;;;;;21.77;71.78;101208.88;107577;1254;109672;-64
2023/09/23 06:57:54;;;;;;;8.70;3.90;;;;;;;21.83;71.62;101207.44;107540;1255;107585;-65
2023/09/23 07:00:22;;;;;;;9.20;4.00;;;;;;;21.88;71.58;101207.13;107525;1252;97842;-64
2023/09/23 07:02:50;;;;;;;18.80;3.90;;;;;;;21.95;71.43;101211.98;107538;1251;98479;-65
2023/09/23 07:05:19;;;;;;;9.10;4.40;;;;;;;22.02;71.02;101215.27;107570;1255;112342;-64
2023/09/23 07:07:48;;;;;;;6.90;3.70;;;;;;;22.07;71.04;101210.97;107627;1253;109068;-65
2023/09/23 07:10:16;;;;;;;9.40;3.90;;;;;;;22.12;70.63;101211.80;107568;1252;108357;-64
2023/09/23 07:12:45;;;;;;;10.30;3.50;;;;;;;22.16;70.53;101214.14;107580;1255;97835;-65
2023/09/23 07:15:13;;;;;;;10.20;4.00;;;;;;;22.22;70.48;101212.77;107562;1252;98037;-63
2023/09/23 07:17:41;;;;;;;14.70;4.10;;;;;;;22.28;70.36;101212.16;107583;1254;111733;-63
2023/09/23 07:20:11;;;;;;;12.30;3.80;;;;;;;22.35;69.96;101218.31;107597;1253;108872;-65
2023/09/23 07:22:39;;;;;;;9.00;4.00;;;;;;;22.40;69.75;101215.14;107563;1255;106484;-64
2023/09/23 07:25:07;;;;;;;8.10;3.70;;;;;;;22.46;69.45;101220.71;107543;1254;97765;-64
2023/09/23 07:27:35;;;;;;;14.80;4.50;;;;;;;22.54;69.29;101221.12;107575;1254;97797;-65
2023/09/23 07:30:04;;;;;;;10.60;3.90;;;;;;;22.64;68.81;101229.68;107551;1254;111235;-65
2023/09/23 07:32:32;;;;;;;9.80;4.70;;;;;;;22.72;68.48;101229.84;107582;1254;109862;-66
2023/09/23 07:35:00;;;;;;;12.70;4.00;;;;;;;22.79;67.92;101235.39;107557;1256;108283;-63
2023/09/23 07:37:29;;;;;;;16.00;4.40;;;;;;;22.83;67.15;101240.70;107575;1251;97845;-63
2023/09/23 07:39:57;;;;;;;8.50;4.00;;;;;;;22.84;66.67;101243.66;107566;1256;98401;-64
2023/09/23 07:42:26;;;;;;;8.50;4.10;;;;;;;22.88;66.74;101240.93;107654;1254;111235;-63
2023/09/23 07:44:54;;;;;;;7.10;3.70;;;;;;;22.93;66.49;101243.15;107558;1251;109808;-63
2023/09/23 07:47:22;;;;;;;13.10;4.50;;;;;;;23.01;66.12;101240.64;107553;1251;108278;-64
2023/09/23 07:49:51;;;;;;;20.20;5.00;;;;;;;23.08;66.31;101237.14;107587;1254;97723;-63
2023/09/23 07:52:20;;;;;;;13.10;4.50;;;;;;;23.17;66.20;101240.73;107577;1251;97799;-65
2023/09/23 07:54:48;;;;;;;15.10;4.80;;;;;;;23.25;65.59;101239.20;107623;1254;111228;-64
2023/09/23 07:57:16;;;;;;;11.50;4.40;;;;;;;23.30;65.34;101242.82;107560;1254;109157;-65
2023/09/23 07:59:45;;;;;;;14.80;4.30;;;;;;;23.38;65.10;101244.44;107561;1252;109016;-64
2023/09/23 08:02:13;;;;;;;8.20;4.20;;;;;;;23.49;64.80;101248.92;107552;1253;97963;-64
2023/09/23 08:04:42;;;;;;;14.10;6.10;;;;;;;23.57;64.62;101250.48;107638;1254;97768;-64
2023/09/23 08:07:11;;;;;;;10.10;4.20;;;;;;;23.67;64.14;101250.27;107546;1253;111473;-65
2023/09/23 08:09:40;;;;;;;12.30;5.40;;;;;;;23.74;63.69;101246.76;107563;1253;108420;-64
2023/09/23 08:12:09;;;;;;;11.90;4.10;;;;;;;23.78;63.58;101249.96;107598;1253;108930;-63
2023/09/23 08:14:38;;;;;;;12.10;4.50;;;;;;;23.82;63.09;101248.86;107576;1253;97909;-64
2023/09/23 08:17:06;;;;;;;6.60;3.80;;;;;;;23.87;62.83;101238.85;107598;1253;97879;-65
2023/09/23 08:19:34;;;;;;;10.30;3.90;;;;;;;23.94;62.78;101235.01;107610;1254;111743;-65
2023/09/23 08:22:03;;;;;;;18.20;4.70;;;;;;;24.02;62.62;101228.52;107580;1253;108711;-65
2023/09/23 08:24:32;;;;;;;6.80;4.00;;;;;;;24.14;62.63;101218.40;107514;1253;108690;-65
2023/09/23 08:27:03;;;;;;;16.00;4.50;;;;;;;24.25;62.24;101210.32;107557;1252;97847;-65
2023/09/23 08:29:32;;;;;;;6.70;3.70;;;;;;;24.40;62.18;101205.87;107594;1254;98392;-65
2023/09/23 08:32:01;;;;;;;7.40;3.50;;;;;;;24.57;61.80;101206.98;107576;1254;110468;-65
2023/09/23 08:34:29;;;;;;;14.70;4.40;;;;;;;24.76;61.29;101205.60;107569;1254;110291;-65
2023/09/23 08:37:00;;;;;;;9.70;3.70;;;;;;;24.95;61.11;101202.34;107562;1254;107861;-64
2023/09/23 08:39:29;;;;;;;9.30;3.80;;;;;;;25.16;60.81;101202.58;107591;1254;98510;-64
2023/09/23 08:42:02;;;;;;;11.20;3.40;;;;;;;25.40;60.04;101206.39;107595;1253;97803;-66
2023/09/23 08:44:35;;;;;;;8.40;3.30;;;;;;;25.63;59.17;101206.00;107554;1254;110757;-66
2023/09/23 08:47:05;;;;;;;12.00;3.20;;;;;;;25.87;58.48;101202.92;107532;1254;108793;-64
2023/09/23 08:49:35;;;;;;;12.10;3.10;;;;;;;26.13;57.31;101201.98;107549;1254;107631;-64
2023/09/23 08:52:04;;;;;;;11.90;3.20;;;;;;;26.37;56.62;101200.38;107602;1254;97753;-64
2023/09/23 08:54:34;;;;;;;10.30;2.90;;;;;;;26.61;56.02;101204.15;107574;1255;97748;-65
2023/09/23 08:57:02;;;;;;;7.30;3.30;;;;;;;26.87;54.00;101215.11;107577;1253;111350;-64
2023/09/23 08:59:31;;;;;;;6.90;2.70;;;;;;;27.06;53.51;101211.83;107574;1253;109249;-64
2023/09/23 09:01:59;;;;;;;6.10;2.60;;;;;;;27.34;53.35;101215.59;107593;1253;108440;-65
2023/09/23 09:04:27;;;;;;;5.80;2.60;;;;;;;27.63;52.08;101210.56;107567;1254;97944;-64
2023/09/23 09:06:56;;;;;;;12.40;3.00;;;;;;;27.91;51.90;101207.85;107632;1254;97835;-64
2023/09/23 09:09:25;;;;;;;7.30;2.30;;;;;;;28.21;50.79;101204.93;107576;1254;113640;-65
2023/09/23 09:11:54;;;;;;;6.30;2.50;;;;;;;28.52;49.35;101210.39;107557;1254;110289;-65
2023/09/23 09:14:23;;;;;;;10.50;2.60;;;;;;;28.89;47.46;101214.88;107573;1253;107792;-65
2023/09/23 09:16:53;;;;;;;6.10;2.70;;;;;;;29.29;47.54;101211.42;107546;1256;97737;-64
2023/09/23 09:19:21;;;;;;;10.20;3.70;;;;;;;29.98;47.03;101214.71;107658;1256;97726;-64
2023/09/23 09:21:50;;;;;;;13.70;2.80;;;;;;;30.74;44.89;101214.35;107625;1252;111955;-64
2023/09/23 09:24:19;;;;;;;5.00;2.20;;;;;;;31.34;44.28;101206.94;107636;1254;108735;-64
2023/09/23 09:26:48;;;;;;;3.90;2.00;;;;;;;31.94;43.32;101207.09;107518;1256;107830;-64
2023/09/23 09:29:16;;;;;;;7.60;2.30;;;;;;;32.54;42.17;101205.87;107577;1251;97834;-62
2023/09/23 09:31:50;;;;;;;8.30;2.40;;;;;;;33.12;40.65;101205.70;107563;1254;97811;-64
2023/09/23 09:34:24;;;;;;;13.00;2.00;;;;;;;33.69;40.29;101208.65;107586;1254;112572;-63
2023/09/23 09:36:58;;;;;;;7.90;2.10;;;;;;;34.24;38.26;101206.65;107585;1256;108693;-65
2023/09/23 09:39:36;;;;;;;5.10;1.90;;;;;;;34.70;38.15;101197.04;107595;1253;108347;-65
2023/09/23 09:42:17;;;;;;;6.40;2.40;;;;;;;35.18;37.27;101191.91;107338;1259;97827;-65
2023/09/23 09:44:46;;;;;;;7.20;2.10;;;;;;;35.65;35.68;101199.31;107577;1254;98356;-65
2023/09/23 09:47:17;;;;;;;7.40;2.00;;;;;;;35.98;34.28;101201.72;107581;1253;112207;-64
2023/09/23 09:49:46;;;;;;;12.20;1.90;;;;;;;36.20;34.35;101202.13;107643;1251;109919;-65
2023/09/23 09:52:15;;;;;;;8.00;1.90;;;;;;;36.58;34.22;101205.27;107567;1254;107444;-65
2023/09/23 09:54:44;;;;;;;7.10;2.40;;;;;;;37.02;33.93;101202.31;107517;1254;97908;-63
2023/09/23 09:57:12;;;;;;;9.90;2.00;;;;;;;37.44;32.48;101199.88;107562;1254;97716;-65
2023/09/23 09:59:42;;;;;;;7.80;2.40;;;;;;;37.74;31.86;101198.25;107607;1254;111232;-66
2023/09/23 10:02:14;;;;;;;4.40;2.20;;;;;;;37.84;31.39;101190.61;107588;1254;109269;-65
2023/09/23 10:04:49;;;;;;;10.90;2.30;;;;;;;38.20;31.33;101190.95;107552;1253;108315;-65
2023/09/23 10:07:17;;;;;;;9.30;2.10;;;;;;;38.54;30.70;101185.70;107631;1254;97716;-64
2023/09/23 10:09:58;;;;;;;8.40;2.20;;;;;;;38.97;30.27;101182.16;107026;1253;679096;-65
2023/09/23 10:12:31;;;;;;;7.50;2.40;;;;;;;39.37;29.91;101180.04;107593;1254;111847;-66
2023/09/23 10:15:01;;;;;;;10.90;2.30;;;;;;;39.73;28.77;101183.19;107608;1255;108728;-64
2023/09/23 10:17:31;;;;;;;7.80;1.90;;;;;;;39.94;28.29;101182.18;107550;1253;108276;-65
2023/09/23 10:20:01;;;;;;;6.50;2.10;;;;;;;40.02;27.70;101179.83;107543;1253;98354;-64
2023/09/23 10:22:29;;;;;;;8.00;2.40;;;;;;;40.14;27.35;101170.96;107630;1254;97870;-65
2023/09/23 10:25:06;;;;;;;4.70;1.70;;;;;;;40.33;27.09;101171.81;107620;1253;111828;-65
2023/09/23 10:27:38;;;;;;;8.50;2.30;;;;;;;40.40;27.40;101165.95;107609;1254;109307;-65
2023/09/23 10:30:07;;;;;;;12.50;2.00;;;;;;;40.60;27.29;101163.29;107488;1255;108188;-64
2023/09/23 10:32:36;;;;;;;9.80;2.40;;;;;;;40.96;27.14;101154.20;107545;1251;97852;-64
2023/09/23 10:35:04;;;;;;;6.20;2.00;;;;;;;41.26;26.23;101155.42;107566;1254;98464;-65
2023/09/23 10:37:36;;;;;;;11.80;2.10;;;;;;;41.43;25.67;101149.55;107603;1254;111975;-65
2023/09/23 10:40:13;;;;;;;9.80;2.10;;;;;;;41.47;25.47;101144.06;107578;1254;109281;-64
2023/09/23 10:42:42;;;;;;;9.10;2.00;;;;;;;41.62;25.80;101141.38;107520;1254;108520;-66
2023/09/23 10:45:11;;;;;;;4.50;1.70;;;;;;;41.76;25.52;101145.30;107573;1254;98044;-65
2023/09/23 10:47:43;;;;;;;6.40;1.60;;;;;;;41.91;24.98;101144.27;107532;1257;97787;-65
2023/09/23 10:50:13;;;;;;;10.80;2.10;;;;;;;42.08;24.64;101147.62;107636;1254;110421;-66
2023/09/23 10:52:41;;;;;;;7.00;1.90;;;;;;;42.20;24.74;101150.69;107583;1253;109894;-64
2023/09/23 10:55:10;;;;;;;7.60;1.90;;;;;;;42.39;24.01;101150.77;107479;1256;108401;-64
2023/09/23 10:57:39;;;;;;;6.10;1.70;;;;;;;42.51;24.13;101148.10;107601;1254;97926;-65
2023/09/23 11:00:20;;;;;;;9.90;2.40;;;;;;;42.62;23.79;101153.59;107650;1253;97834;-66
2023/09/23 11:02:52;;;;;;;7.30;1.70;;;;;;;42.63;22.91;101148.67;107572;1255;111844;-66
2023/09/23 11:05:22;;;;;;;15.70;2.30;;;;;;;42.54;23.40;101141.00;107617;1254;109390;-65
2023/09/23 11:07:56;;;;;;;7.40;1.60;;;;;;;42.69;23.52;101143.65;107573;1254;108522;-66
2023/09/23 11:10:27;;;;;;;8.30;1.90;;;;;;;42.64;22.88;101141.54;107573;1254;97723;-65
2023/09/23 11:12:56;;;;;;;12.50;2.50;;;;;;;42.44;22.84;101137.30;107631;1253;97736;-65
2023/09/23 11:15:24;;;;;;;9.10;1.80;;;;;;;42.24;23.63;101135.73;107608;1254;111387;-66
2023/09/23 11:17:56;;;;;;;6.50;2.10;;;;;;;42.11;23.66;101131.04;107544;1256;109676;-65
2023/09/23 11:20:31;;;;;;;9.20;1.90;;;;;;;41.87;23.89;101127.66;107593;1254;107654;-65